createdAt,value
2023-03-29T00:01:11.119Z,21.88
2023-03-29T00:04:34.444Z,22.05
2023-03-29T00:07:37.820Z,21.80
2023-03-29T00:10:41.324Z,21.66
2023-03-29T00:13:45.267Z,21.58
2023-03-29T00:16:48.853Z,21.40
2023-03-29T00:19:52.327Z,21.32
2023-03-29T00:22:58.745Z,21.18
2023-03-29T00:26:02.064Z,21.45
2023-03-29T00:29:07.128Z,21.22
2023-03-29T00:32:10.514Z,21.13
2023-03-29T00:35:13.869Z,21.17
2023-03-29T00:38:17.292Z,20.99
2023-03-29T00:41:20.661Z,20.98
2023-03-29T00:44:57.555Z,20.87
2023-03-29T00:48:07.550Z,20.82
2023-03-29T00:51:14.572Z,20.74
2023-03-29T00:54:20.754Z,20.54
2023-03-29T00:57:27.223Z,20.52
2023-03-29T01:00:36.518Z,20.62
2023-03-29T01:03:43.765Z,20.65
2023-03-29T01:06:58.082Z,20.26
2023-03-29T01:10:17.065Z,20.29
2023-03-29T01:13:36.745Z,20.05
2023-03-29T01:16:40.075Z,19.95
2023-03-29T01:19:46.620Z,20.07
2023-03-29T01:23:15.142Z,19.72
2023-03-29T01:26:34.015Z,19.70
2023-03-29T01:29:42.938Z,19.68
2023-03-29T01:32:48.658Z,19.65
2023-03-29T01:35:55.819Z,19.55
2023-03-29T01:39:01.680Z,19.35
2023-03-29T01:42:13.206Z,19.10
2023-03-29T01:45:28.349Z,18.86
2023-03-29T01:48:34.730Z,18.99
2023-03-29T01:51:38.556Z,19.05
2023-03-29T01:54:54.743Z,18.78
2023-03-29T01:58:00.476Z,18.83
2023-03-29T02:01:05.436Z,18.64
2023-03-29T02:04:12.500Z,18.74
2023-03-29T02:07:19.902Z,18.99
2023-03-29T02:10:24.393Z,18.73
2023-03-29T02:13:27.652Z,18.50
2023-03-29T02:16:36.602Z,18.43
2023-03-29T02:19:39.829Z,18.19
2023-03-29T02:22:57.335Z,18.25
2023-03-29T02:26:01.680Z,18.21
2023-03-29T02:29:05.149Z,18.01
2023-03-29T02:32:16.848Z,17.96
2023-03-29T02:35:57.394Z,17.83
2023-03-29T02:39:03.950Z,17.98
2023-03-29T02:42:07.589Z,17.90
2023-03-29T02:45:13.260Z,17.83
2023-03-29T02:48:19.105Z,17.78
2023-03-29T02:51:30.300Z,17.74
2023-03-29T02:54:34.478Z,17.53
2023-03-29T02:57:37.787Z,17.61
2023-03-29T03:00:49.223Z,17.42
2023-03-29T03:03:54.585Z,17.34
2023-03-29T03:06:58.142Z,16.99
2023-03-29T03:10:01.548Z,17.18
2023-03-29T03:13:04.994Z,17.16
2023-03-29T03:16:08.909Z,17.11
2023-03-29T03:19:12.556Z,16.91
2023-03-29T03:22:15.841Z,16.98
2023-03-29T03:25:20.800Z,16.73
2023-03-29T03:28:24.663Z,16.75
2023-03-29T03:31:27.949Z,16.76
2023-03-29T03:34:31.449Z,16.53
2023-03-29T03:37:34.987Z,16.61
2023-03-29T03:40:38.128Z,16.45
2023-03-29T03:43:41.415Z,16.74
2023-03-29T03:46:44.588Z,16.73
2023-03-29T03:49:47.838Z,16.60
2023-03-29T03:52:51.154Z,16.33
2023-03-29T03:55:57.907Z,16.41
2023-03-29T03:59:01.221Z,16.43
2023-03-29T04:02:04.468Z,16.40
2023-03-29T04:05:07.916Z,16.39
2023-03-29T04:08:12.214Z,16.16
2023-03-29T04:11:15.681Z,16.17
2023-03-29T04:14:19.053Z,16.19
2023-03-29T04:17:22.448Z,16.10
2023-03-29T04:20:26.262Z,16.12
2023-03-29T04:23:29.580Z,15.91
2023-03-29T04:26:32.783Z,16.05
2023-03-29T04:29:36.116Z,15.83
2023-03-29T04:32:39.485Z,15.88
2023-03-29T04:35:42.877Z,15.71
2023-03-29T04:38:47.679Z,15.61
2023-03-29T04:41:51.149Z,15.74
2023-03-29T04:44:54.800Z,15.64
2023-03-29T04:47:58.857Z,15.69
2023-03-29T04:51:02.388Z,15.60
2023-03-29T04:54:06.612Z,15.53
2023-03-29T04:57:09.927Z,15.65
2023-03-29T05:00:13.608Z,15.44
2023-03-29T05:03:16.827Z,15.44
2023-03-29T05:06:20.027Z,15.57
2023-03-29T05:09:23.280Z,15.35
2023-03-29T05:12:26.497Z,15.43
2023-03-29T05:15:29.803Z,15.34
2023-03-29T05:18:33.124Z,15.33
2023-03-29T05:21:36.757Z,15.29
2023-03-29T05:24:39.991Z,15.28
2023-03-29T05:27:43.320Z,15.29
2023-03-29T05:30:47.097Z,15.30
2023-03-29T05:33:51.393Z,15.53
2023-03-29T05:36:54.619Z,15.30
2023-03-29T05:40:06.032Z,15.32
2023-03-29T05:43:09.610Z,15.19
2023-03-29T05:46:13.024Z,15.23
2023-03-29T05:49:16.282Z,15.29
2023-03-29T05:52:19.734Z,14.99
2023-03-29T05:55:22.981Z,15.12
2023-03-29T05:58:26.281Z,15.27
2023-03-29T06:01:29.752Z,15.01
2023-03-29T06:04:34.412Z,15.03
2023-03-29T06:07:37.652Z,14.96
2023-03-29T06:10:40.936Z,14.84
2023-03-29T06:13:44.299Z,15.17
2023-03-29T06:16:47.590Z,14.92
2023-03-29T06:19:50.795Z,14.99
2023-03-29T06:22:54.243Z,14.84
2023-03-29T06:25:57.705Z,14.69
2023-03-29T06:29:00.950Z,14.94
2023-03-29T06:32:04.227Z,14.73
2023-03-29T06:35:08.010Z,14.85
2023-03-29T06:38:11.708Z,14.90
2023-03-29T06:41:15.160Z,14.90
2023-03-29T06:44:18.466Z,15.09
2023-03-29T06:47:21.786Z,14.85
2023-03-29T06:50:25.110Z,14.94
2023-03-29T06:53:28.584Z,14.54
2023-03-29T06:56:32.037Z,14.58
2023-03-29T06:59:36.450Z,14.72
2023-03-29T07:02:39.667Z,14.87
2023-03-29T07:05:43.053Z,14.66
2023-03-29T07:08:46.253Z,14.70
2023-03-29T07:11:49.460Z,14.68
2023-03-29T07:14:52.711Z,14.56
2023-03-29T07:17:56.367Z,14.59
2023-03-29T07:20:59.763Z,14.55
2023-03-29T07:24:03.231Z,14.79
2023-03-29T07:27:08.038Z,14.52
2023-03-29T07:30:14.278Z,14.56
2023-03-29T07:33:18.321Z,14.37
2023-03-29T07:36:21.719Z,14.30
2023-03-29T07:39:25.105Z,14.31
2023-03-29T07:42:29.419Z,14.13
2023-03-29T07:45:32.665Z,14.32
2023-03-29T07:48:36.622Z,14.38
2023-03-29T07:51:39.798Z,14.40
2023-03-29T07:54:43.170Z,14.18
2023-03-29T07:57:46.362Z,14.33
2023-03-29T08:00:49.649Z,13.87
2023-03-29T08:03:52.940Z,14.06
2023-03-29T08:06:56.253Z,14.22
2023-03-29T08:09:59.741Z,14.13
2023-03-29T08:13:05.623Z,14.18
2023-03-29T08:16:09.371Z,14.10
2023-03-29T08:19:12.588Z,14.05
2023-03-29T08:22:15.787Z,14.24
2023-03-29T08:25:22.881Z,14.10
2023-03-29T08:28:26.261Z,14.32
2023-03-29T08:31:29.705Z,14.00
2023-03-29T08:34:33.192Z,14.14
2023-03-29T08:37:37.566Z,14.26
2023-03-29T08:40:40.853Z,14.42
2023-03-29T08:44:04.150Z,14.07
2023-03-29T08:47:28.989Z,14.02
2023-03-29T08:50:39.464Z,14.09
2023-03-29T08:54:31.023Z,13.90
2023-03-29T08:57:40.320Z,14.00
2023-03-29T09:00:55.227Z,13.86
2023-03-29T09:04:08.024Z,13.63
2023-03-29T09:07:11.685Z,13.77
2023-03-29T09:10:17.503Z,13.70
2023-03-29T09:13:44.789Z,13.75
2023-03-29T09:16:56.868Z,13.72
2023-03-29T09:20:11.547Z,13.65
2023-03-29T09:23:28.139Z,13.73
2023-03-29T09:27:21.669Z,13.79
2023-03-29T09:30:29.166Z,13.54
2023-03-29T09:33:42.362Z,13.70
2023-03-29T09:37:01.755Z,13.62
2023-03-29T09:40:15.415Z,13.58
2023-03-29T09:43:25.576Z,13.58
2023-03-29T09:46:53.266Z,13.61
2023-03-29T09:50:03.707Z,13.68
2023-03-29T09:53:06.959Z,13.48
2023-03-29T09:56:10.262Z,13.59
2023-03-29T09:58:58.590Z,13.65
2023-03-29T10:02:13.790Z,13.60
2023-03-29T10:05:18.619Z,13.46
2023-03-29T10:08:28.605Z,13.50
2023-03-29T10:11:38.753Z,13.37
2023-03-29T10:14:53.053Z,13.69
2023-03-29T10:18:07.395Z,13.42
2023-03-29T10:21:15.192Z,13.28
2023-03-29T10:24:23.236Z,13.42
2023-03-29T10:27:31.052Z,13.17
2023-03-29T10:30:37.563Z,13.22
2023-03-29T10:33:40.779Z,13.33
2023-03-29T10:36:47.628Z,13.32
2023-03-29T10:39:51.519Z,13.31
2023-03-29T10:42:55.149Z,13.51
2023-03-29T10:46:10.615Z,13.13
2023-03-29T10:49:22.852Z,13.29
2023-03-29T10:52:26.448Z,13.46
2023-03-29T10:55:51.124Z,13.37
2023-03-29T10:59:19.161Z,13.45
2023-03-29T11:02:46.057Z,13.36
2023-03-29T11:06:13.747Z,13.11
2023-03-29T11:09:50.824Z,13.22
2023-03-29T11:13:06.018Z,13.41
2023-03-29T11:16:14.341Z,13.23
2023-03-29T11:19:48.176Z,13.26
2023-03-29T11:23:14.980Z,12.92
2023-03-29T11:26:25.556Z,13.19
2023-03-29T11:29:35.285Z,13.15
2023-03-29T11:32:51.449Z,13.04
2023-03-29T11:36:13.127Z,13.14
2023-03-29T11:39:49.944Z,13.09
2023-03-29T11:42:54.996Z,13.23
2023-03-29T11:46:03.646Z,13.16
2023-03-29T11:49:16.074Z,12.74
2023-03-29T11:52:37.993Z,12.94
2023-03-29T11:55:42.178Z,12.93
2023-03-29T11:58:50.826Z,13.22
2023-03-29T12:01:57.375Z,13.11
2023-03-29T12:05:03.477Z,13.22
2023-03-29T12:08:08.012Z,13.13
2023-03-29T12:11:23.158Z,12.94
2023-03-29T12:14:39.992Z,13.01
2023-03-29T12:17:49.577Z,13.13
2023-03-29T12:21:05.827Z,13.17
2023-03-29T12:24:13.252Z,13.14
2023-03-29T12:27:26.613Z,13.02
2023-03-29T12:30:57.370Z,12.96
2023-03-29T12:34:25.852Z,12.86
2023-03-29T12:37:40.642Z,12.97
2023-03-29T12:40:49.269Z,12.96
2023-03-29T12:43:55.080Z,12.97
2023-03-29T12:47:00.461Z,13.02
2023-03-29T12:50:04.414Z,13.11
2023-03-29T12:53:25.852Z,12.97
2023-03-29T12:57:02.930Z,12.97
2023-03-29T13:00:21.991Z,12.80
2023-03-29T13:03:28.638Z,12.80
2023-03-29T13:06:36.003Z,12.84
2023-03-29T13:09:54.171Z,13.03
2023-03-29T13:12:57.517Z,12.86
2023-03-29T13:16:20.475Z,13.04
2023-03-29T13:19:37.912Z,13.14
2023-03-29T13:22:59.592Z,12.85
2023-03-29T13:26:20.889Z,13.11
2023-03-29T13:30:01.420Z,13.31
2023-03-29T13:33:28.389Z,12.98
2023-03-29T13:36:50.471Z,13.07
2023-03-29T13:39:55.638Z,13.24
2023-03-29T13:43:18.879Z,13.16
2023-03-29T13:46:36.751Z,13.26
2023-03-29T13:49:41.317Z,13.21
2023-03-29T13:53:08.737Z,12.96
2023-03-29T13:56:17.348Z,13.13
2023-03-29T13:59:26.462Z,13.21
2023-03-29T14:02:41.662Z,13.20
2023-03-29T14:05:55.650Z,13.24
2023-03-29T14:09:03.262Z,13.23
2023-03-29T14:12:07.472Z,13.09
2023-03-29T14:15:23.735Z,13.19
2023-03-29T14:18:29.545Z,13.20
2023-03-29T14:21:32.944Z,13.16
2023-03-29T14:24:39.585Z,13.17
2023-03-29T14:27:43.002Z,13.21
2023-03-29T14:30:47.304Z,13.10
2023-03-29T14:33:55.159Z,13.28
2023-03-29T14:36:58.773Z,13.21
2023-03-29T14:40:02.304Z,13.21
2023-03-29T14:43:07.675Z,13.06
2023-03-29T14:46:12.151Z,13.01
2023-03-29T14:49:20.596Z,13.00
2023-03-29T14:52:24.590Z,13.03
2023-03-29T14:55:28.061Z,12.98
2023-03-29T14:58:36.396Z,12.84
2023-03-29T15:01:45.317Z,13.16
2023-03-29T15:04:56.170Z,12.78
2023-03-29T15:07:59.472Z,12.99
2023-03-29T15:11:05.554Z,13.14
2023-03-29T15:14:13.352Z,13.19
2023-03-29T15:17:39.459Z,13.45
2023-03-29T15:20:53.240Z,13.61
2023-03-29T15:23:58.766Z,13.44
2023-03-29T15:27:18.041Z,13.16
2023-03-29T15:30:21.450Z,13.43
2023-03-29T15:33:26.994Z,13.78
2023-03-29T15:36:30.424Z,13.62
2023-03-29T15:39:33.688Z,13.57
2023-03-29T15:42:39.804Z,13.92
2023-03-29T15:45:43.280Z,13.77
2023-03-29T15:48:46.963Z,13.51
2023-03-29T15:51:50.494Z,13.39
2023-03-29T15:54:53.863Z,13.47
2023-03-29T15:57:57.323Z,13.50
2023-03-29T16:01:08.157Z,13.58
2023-03-29T16:04:20.909Z,13.59
2023-03-29T16:07:24.198Z,13.78
2023-03-29T16:10:27.552Z,13.80
2023-03-29T16:13:31.877Z,13.58
2023-03-29T16:16:35.351Z,13.80
2023-03-29T16:19:38.749Z,13.73
2023-03-29T16:22:43.315Z,13.79
2023-03-29T16:25:46.681Z,13.78
2023-03-29T16:28:50.003Z,13.44
2023-03-29T16:31:53.600Z,13.49
2023-03-29T16:34:57.185Z,13.39
2023-03-29T16:38:00.673Z,13.43
2023-03-29T16:41:03.997Z,14.14
2023-03-29T16:44:07.673Z,13.74
2023-03-29T16:47:13.889Z,13.73
2023-03-29T16:50:19.161Z,13.57
2023-03-29T16:53:23.646Z,13.62
2023-03-29T16:56:27.168Z,13.94
2023-03-29T16:59:30.488Z,14.06
2023-03-29T17:02:34.242Z,14.46
2023-03-29T17:05:37.473Z,13.99
2023-03-29T17:08:41.880Z,14.13
2023-03-29T17:11:45.432Z,14.28
2023-03-29T17:14:49.687Z,14.10
2023-03-29T17:17:52.947Z,14.00
2023-03-29T17:20:59.963Z,14.45
2023-03-29T17:24:03.269Z,14.35
2023-03-29T17:27:06.643Z,14.71
2023-03-29T17:30:10.803Z,15.04
2023-03-29T17:33:15.313Z,15.22
2023-03-29T17:36:21.044Z,15.39
2023-03-29T17:39:24.516Z,15.59
2023-03-29T17:42:27.952Z,16.27
2023-03-29T17:45:31.190Z,16.76
2023-03-29T17:48:34.625Z,16.70
2023-03-29T17:51:38.090Z,16.84
2023-03-29T17:54:41.341Z,17.06
2023-03-29T17:57:45.033Z,17.50
2023-03-29T18:00:48.233Z,17.43
2023-03-29T18:03:51.801Z,17.38
2023-03-29T18:06:55.042Z,17.52
2023-03-29T18:09:58.599Z,17.68
2023-03-29T18:13:01.779Z,17.96
2023-03-29T18:16:05.440Z,18.52
2023-03-29T18:19:08.801Z,18.60
2023-03-29T18:22:12.077Z,18.41
2023-03-29T18:25:15.254Z,18.65
2023-03-29T18:28:18.675Z,18.25
2023-03-29T18:31:21.915Z,18.65
2023-03-29T18:34:25.226Z,18.60
2023-03-29T18:37:29.372Z,18.22
2023-03-29T18:40:32.648Z,18.89
2023-03-29T18:43:38.805Z,18.34
2023-03-29T18:46:42.474Z,18.34
2023-03-29T18:49:45.867Z,18.16
2023-03-29T18:52:50.351Z,17.85
2023-03-29T18:55:53.584Z,18.48
2023-03-29T18:58:57.064Z,18.41
2023-03-29T19:02:01.239Z,18.54
2023-03-29T19:05:04.861Z,18.34
2023-03-29T19:08:08.686Z,18.28
2023-03-29T19:11:13.145Z,18.50
2023-03-29T19:14:16.700Z,18.23
2023-03-29T19:17:20.438Z,18.72
2023-03-29T19:20:23.621Z,18.86
2023-03-29T19:23:27.363Z,18.91
2023-03-29T19:26:30.774Z,19.05
2023-03-29T19:29:34.023Z,19.25
2023-03-29T19:32:37.298Z,20.04
2023-03-29T19:35:41.240Z,20.20
2023-03-29T19:38:44.629Z,20.17
2023-03-29T19:41:48.147Z,20.21
2023-03-29T19:44:51.448Z,19.66
2023-03-29T19:47:55.923Z,19.23
2023-03-29T19:51:02.252Z,19.64
2023-03-29T19:54:05.598Z,19.55
2023-03-29T19:57:09.338Z,20.11
2023-03-29T20:00:13.446Z,19.51
2023-03-29T20:03:16.991Z,19.58
2023-03-29T20:06:21.960Z,19.40
2023-03-29T20:09:25.219Z,20.11
2023-03-29T20:12:28.422Z,20.06
2023-03-29T20:15:31.636Z,20.06
2023-03-29T20:18:35.017Z,20.07
2023-03-29T20:21:38.245Z,20.61
2023-03-29T20:24:41.456Z,20.41
2023-03-29T20:27:44.608Z,20.55
2023-03-29T20:30:47.982Z,20.41
2023-03-29T20:33:51.351Z,20.61
2023-03-29T20:36:54.784Z,20.35
2023-03-29T20:39:57.929Z,20.26
2023-03-29T20:43:01.242Z,20.25
2023-03-29T20:46:05.783Z,20.00
2023-03-29T20:49:09.078Z,19.76
2023-03-29T20:52:14.645Z,20.07
2023-03-29T20:55:18.089Z,20.00
2023-03-29T20:58:21.410Z,20.25
2023-03-29T21:01:25.846Z,20.48
2023-03-29T21:04:29.498Z,20.39
2023-03-29T21:07:32.765Z,20.57
2023-03-29T21:10:35.940Z,20.74
2023-03-29T21:13:41.651Z,19.68
2023-03-29T21:16:44.813Z,19.75
2023-03-29T21:19:48.100Z,19.77
2023-03-29T21:22:51.506Z,19.37
2023-03-29T21:25:54.786Z,19.49
2023-03-29T21:28:58.121Z,19.41
2023-03-29T21:32:01.489Z,19.46
2023-03-29T21:35:05.076Z,19.80
2023-03-29T21:38:10.744Z,20.11
2023-03-29T21:41:17.030Z,20.20
2023-03-29T21:44:20.560Z,20.05
2023-03-29T21:47:23.822Z,19.75
2023-03-29T21:50:27.031Z,20.29
2023-03-29T21:53:30.486Z,20.17
2023-03-29T21:56:33.819Z,20.05
2023-03-29T21:59:37.132Z,19.92
2023-03-29T22:02:40.793Z,20.10
2023-03-29T22:05:44.329Z,19.82
2023-03-29T22:08:47.588Z,20.15
2023-03-29T22:11:51.050Z,20.06
2023-03-29T22:14:54.338Z,19.94
2023-03-29T22:17:59.713Z,20.31
2023-03-29T22:21:03.466Z,20.09
2023-03-29T22:24:06.997Z,20.14
2023-03-29T22:27:12.577Z,19.97
2023-03-29T22:30:17.292Z,19.93
2023-03-29T22:33:20.604Z,20.17
2023-03-29T22:36:26.233Z,20.28
2023-03-29T22:39:29.810Z,20.07
2023-03-29T22:42:33.064Z,20.34
2023-03-29T22:45:36.370Z,19.89
2023-03-29T22:48:40.090Z,20.18
2023-03-29T22:51:43.476Z,19.89
2023-03-29T22:54:46.734Z,20.01
2023-03-29T22:57:50.020Z,19.92
2023-03-29T23:00:53.565Z,19.94
2023-03-29T23:03:56.848Z,19.82
2023-03-29T23:07:00.100Z,19.61
2023-03-29T23:10:10.241Z,19.41
2023-03-29T23:13:13.956Z,19.50
2023-03-29T23:16:17.263Z,19.36
2023-03-29T23:19:20.603Z,19.38
2023-03-29T23:22:23.819Z,19.30
2023-03-29T23:25:27.272Z,19.22
2023-03-29T23:28:30.862Z,19.15
2023-03-29T23:31:34.176Z,18.87
2023-03-29T23:34:37.443Z,18.96
2023-03-29T23:37:40.741Z,19.04
2023-03-29T23:40:44.142Z,19.08
2023-03-29T23:43:47.451Z,19.21
2023-03-29T23:46:53.092Z,18.99
2023-03-29T23:49:56.348Z,18.99
2023-03-29T23:52:59.642Z,18.92
2023-03-29T23:56:04.585Z,19.05
2023-03-29T23:59:07.988Z,18.64
